createdAt,value
2018-06-01T00:01:04.093Z,98740.61
2018-06-01T00:03:33.858Z,98734.66
2018-06-01T00:06:04.843Z,98730.78
2018-06-01T00:08:35.654Z,98735.22
2018-06-01T00:11:05.943Z,98727.98
2018-06-01T00:13:36.811Z,98734.27
2018-06-01T00:16:06.779Z,98733.09
2018-06-01T00:18:36.778Z,98737.70
2018-06-01T00:21:06.755Z,98731.34
2018-06-01T00:23:37.247Z,98734.83
2018-06-01T00:26:07.501Z,98732.30
2018-06-01T00:28:37.821Z,98735.39
2018-06-01T00:31:07.298Z,98729.44
2018-06-01T00:33:37.103Z,98732.12
2018-06-01T00:36:07.206Z,98738.48
2018-06-01T00:38:39.171Z,98746.17
2018-06-01T00:41:09.362Z,98738.42
2018-06-01T00:43:39.592Z,98735.56
2018-06-01T00:46:09.456Z,98731.52
2018-06-01T00:48:39.249Z,98741.34
2018-06-01T00:51:09.963Z,98738.65
2018-06-01T00:53:39.717Z,98742.69
2018-06-01T00:56:09.498Z,98747.70
2018-06-01T00:58:39.654Z,98754.05
2018-06-01T01:01:11.054Z,98745.03
2018-06-01T01:03:40.484Z,98754.77
2018-06-01T01:06:10.617Z,98754.38
2018-06-01T01:08:40.396Z,98750.90
2018-06-01T01:11:10.519Z,98756.88
2018-06-01T01:13:40.349Z,98746.69
2018-06-01T01:16:10.309Z,98757.84
2018-06-01T01:18:40.116Z,98744.69
2018-06-01T01:21:10.428Z,98744.30
2018-06-01T01:23:40.583Z,98743.13
2018-06-01T01:26:10.605Z,98749.13
2018-06-01T01:28:40.908Z,98739.47
2018-06-01T01:31:10.748Z,98739.47
2018-06-01T01:33:40.722Z,98738.13
2018-06-01T01:36:10.809Z,98734.08
2018-06-01T01:38:40.844Z,98728.07
2018-06-01T01:41:10.449Z,98737.50
2018-06-01T01:43:40.811Z,98746.72
2018-06-01T01:46:10.522Z,98747.11
2018-06-01T01:48:40.464Z,98753.06
2018-06-01T01:51:10.204Z,98747.50
2018-06-01T01:53:40.182Z,98745.94
2018-06-01T01:56:09.917Z,98747.48
2018-06-01T01:58:42.053Z,98755.57
2018-06-01T02:01:14.250Z,98755.17
2018-06-01T02:03:44.488Z,98748.23
2018-06-01T02:06:14.319Z,98757.48
2018-06-01T02:08:44.302Z,98764.61
2018-06-01T02:11:13.947Z,98763.83
2018-06-01T02:13:43.610Z,98767.70
2018-06-01T02:16:13.252Z,98770.56
2018-06-01T02:18:43.096Z,98774.22
2018-06-01T02:21:12.830Z,98778.27
2018-06-01T02:23:42.640Z,98778.83
2018-06-01T02:26:13.415Z,98778.20
2018-06-01T02:28:43.222Z,98776.69
2018-06-01T02:31:13.019Z,98776.69
2018-06-01T02:33:43.385Z,98768.20
2018-06-01T02:36:13.372Z,98771.86
2018-06-01T02:38:43.287Z,98763.83
2018-06-01T02:41:13.261Z,98769.11
2018-06-01T02:43:42.761Z,98766.97
2018-06-01T02:46:12.308Z,98767.50
2018-06-01T02:48:42.641Z,98767.50
2018-06-01T02:51:12.414Z,98769.61
2018-06-01T02:53:42.078Z,98767.31
2018-06-01T02:56:12.480Z,98771.75
2018-06-01T02:58:42.057Z,98772.70
2018-06-01T03:01:11.624Z,98778.09
2018-06-01T03:03:41.821Z,98778.66
2018-06-01T03:06:11.651Z,98776.52
2018-06-01T03:08:41.429Z,98774.05
2018-06-01T03:11:13.891Z,98781.74
2018-06-01T03:13:43.956Z,98785.95
2018-06-01T03:16:13.544Z,98785.95
2018-06-01T03:18:43.664Z,98787.70
2018-06-01T03:21:13.405Z,98799.05
2018-06-01T03:23:43.115Z,98801.73
2018-06-01T03:26:13.798Z,98796.91
2018-06-01T03:28:43.562Z,98809.83
2018-06-01T03:31:13.831Z,98807.30
2018-06-01T03:33:44.069Z,98812.30
2018-06-01T03:36:13.975Z,98810.95
2018-06-01T03:38:43.891Z,98813.81
2018-06-01T03:41:13.594Z,98811.28
2018-06-01T03:43:43.209Z,98804.96
2018-06-01T03:46:12.999Z,98818.41
2018-06-01T03:48:43.092Z,98820.16
2018-06-01T03:51:12.803Z,98822.30
2018-06-01T03:53:42.763Z,98820.16
2018-06-01T03:56:13.049Z,98824.82
2018-06-01T03:58:42.764Z,98823.86
2018-06-01T04:01:12.760Z,98827.69
2018-06-01T04:03:42.555Z,98827.13
2018-06-01T04:06:12.261Z,98832.91
2018-06-01T04:08:42.215Z,98836.95
2018-06-01T04:11:12.171Z,98837.34
2018-06-01T04:13:42.179Z,98830.77
2018-06-01T04:16:12.084Z,98839.81
2018-06-01T04:18:41.913Z,98840.04
2018-06-01T04:21:11.801Z,98834.92
2018-06-01T04:23:42.488Z,98841.22
2018-06-01T04:26:11.927Z,98841.62
2018-06-01T04:28:42.166Z,98846.22
2018-06-01T04:31:11.854Z,98827.81
2018-06-01T04:33:41.368Z,98847.34
2018-06-01T04:36:11.113Z,98844.56
2018-06-01T04:38:40.785Z,98848.20
2018-06-01T04:41:10.502Z,98848.86
2018-06-01T04:43:40.069Z,98839.61
2018-06-01T04:46:09.915Z,98851.33
2018-06-01T04:48:40.279Z,98860.53
2018-06-01T04:51:10.394Z,98854.98
2018-06-01T04:53:40.028Z,98852.92
2018-06-01T04:56:09.478Z,98857.84
2018-06-01T04:58:38.925Z,98856.09
2018-06-01T05:01:08.648Z,98837.78
2018-06-01T05:03:38.640Z,98843.77
2018-06-01T05:06:08.304Z,98839.17
2018-06-01T05:08:38.166Z,98842.20
2018-06-01T05:11:07.983Z,98837.59
2018-06-01T05:13:37.745Z,98838.94
2018-06-01T05:16:07.585Z,98824.70
2018-06-01T05:18:38.609Z,98833.33
2018-06-01T05:21:10.655Z,98830.25
2018-06-01T05:23:40.923Z,98835.23
2018-06-01T05:26:11.065Z,98821.30
2018-06-01T05:28:41.165Z,98836.97
2018-06-01T05:31:11.333Z,98838.32
2018-06-01T05:33:40.832Z,98841.19
2018-06-01T05:36:11.302Z,98837.08
2018-06-01T05:38:41.032Z,98834.78
2018-06-01T05:41:10.980Z,98834.19
2018-06-01T05:43:40.508Z,98834.75
2018-06-01T05:46:10.375Z,98828.41
2018-06-01T05:48:40.757Z,98833.01
2018-06-01T05:51:10.408Z,98835.53
2018-06-01T05:53:40.226Z,98830.65
2018-06-01T05:56:10.360Z,98837.16
2018-06-01T05:58:40.290Z,98832.89
2018-06-01T06:01:09.880Z,98839.01
2018-06-01T06:03:40.135Z,98842.46
2018-06-01T06:06:09.798Z,98840.33
2018-06-01T06:08:39.349Z,98839.70
2018-06-01T06:11:11.085Z,98851.28
2018-06-01T06:13:41.278Z,98840.04
2018-06-01T06:16:11.341Z,98832.22
2018-06-01T06:18:41.192Z,98850.40
2018-06-01T06:21:10.831Z,98851.69
2018-06-01T06:23:41.134Z,98853.59
2018-06-01T06:26:11.182Z,98851.63
2018-06-01T06:28:41.102Z,98862.01
2018-06-01T06:31:14.922Z,98849.67
2018-06-01T06:33:46.297Z,98857.17
2018-06-01T06:36:15.694Z,98865.23
2018-06-01T06:38:45.132Z,98858.10
2018-06-01T06:41:15.026Z,98861.75
2018-06-01T06:43:44.813Z,98863.66
2018-06-01T06:46:14.472Z,98872.53
2018-06-01T06:48:44.549Z,98875.62
2018-06-01T06:51:14.361Z,98875.78
2018-06-01T06:53:44.189Z,98881.34
2018-06-01T06:56:14.781Z,98883.48
2018-06-01T06:58:44.447Z,98881.34
2018-06-01T07:01:14.388Z,98885.26
2018-06-01T07:03:44.697Z,98887.68
2018-06-01T07:06:14.410Z,98886.02
2018-06-01T07:08:44.301Z,98890.70
2018-06-01T07:11:14.473Z,98895.54
2018-06-01T07:13:44.350Z,98900.30
2018-06-01T07:16:14.261Z,98910.69
2018-06-01T07:18:44.658Z,98920.52
2018-06-01T07:21:14.660Z,98921.27
2018-06-01T07:23:44.405Z,98929.36
2018-06-01T07:26:14.685Z,98926.98
2018-06-01T07:28:44.501Z,98929.52
2018-06-01T07:31:14.021Z,98926.27
2018-06-01T07:33:44.976Z,98915.09
2018-06-01T07:36:14.407Z,98926.98
2018-06-01T07:38:44.262Z,98925.81
2018-06-01T07:41:14.440Z,98927.48
2018-06-01T07:43:44.009Z,98921.31
2018-06-01T07:46:13.455Z,98919.01
2018-06-01T07:48:43.711Z,98915.53
2018-06-01T07:51:13.297Z,98917.83
2018-06-01T07:53:43.356Z,98912.61
2018-06-01T07:56:14.864Z,98918.39
2018-06-01T07:58:44.464Z,98920.13
2018-06-01T08:01:15.281Z,98914.17
2018-06-01T08:03:46.256Z,98901.08
2018-06-01T08:06:16.223Z,98930.12
2018-06-01T08:08:45.984Z,98924.17
2018-06-01T08:11:16.806Z,98923.77
2018-06-01T08:13:46.717Z,98912.84
2018-06-01T08:16:16.474Z,98932.22
2018-06-01T08:18:46.684Z,98929.91
2018-06-01T08:21:16.379Z,98936.26
2018-06-01T08:23:46.084Z,98932.38
2018-06-01T08:26:16.191Z,98926.05
2018-06-01T08:28:53.208Z,98926.05
2018-06-01T08:31:24.732Z,98925.42
2018-06-01T08:33:54.405Z,98921.94
2018-06-01T08:36:23.894Z,98930.19
2018-06-01T08:38:54.178Z,98918.84
2018-06-01T08:41:23.966Z,98916.48
2018-06-01T08:43:54.135Z,98915.20
2018-06-01T08:46:24.000Z,98925.35
2018-06-01T08:48:54.578Z,98934.16
2018-06-01T08:51:24.080Z,98909.91
2018-06-01T08:53:53.850Z,98913.36
2018-06-01T08:56:23.689Z,98913.20
2018-06-01T08:58:53.330Z,98908.53
2018-06-01T09:01:23.621Z,98908.80
2018-06-01T09:03:53.762Z,98915.83
2018-06-01T09:06:23.506Z,98916.16
2018-06-01T09:08:53.657Z,98911.33
2018-06-01T09:11:23.190Z,98908.23
2018-06-01T09:13:52.642Z,98899.77
2018-06-01T09:16:22.563Z,98898.81
2018-06-01T09:18:52.430Z,98899.04
2018-06-01T09:21:22.528Z,98892.53
2018-06-01T09:23:52.417Z,98896.24
2018-06-01T09:26:22.126Z,98884.16
2018-06-01T09:28:52.273Z,98886.19
2018-06-01T09:31:22.166Z,98893.39
2018-06-01T09:33:52.212Z,98895.89
2018-06-01T09:36:22.016Z,98887.24
2018-06-01T09:38:51.925Z,98876.86
2018-06-01T09:41:21.968Z,98880.57
2018-06-01T09:43:52.628Z,98876.20
2018-06-01T09:46:47.671Z,98872.19
2018-06-01T09:49:17.417Z,98873.73
2018-06-01T09:51:46.972Z,98873.17
2018-06-01T09:54:17.421Z,98870.67
2018-06-01T09:56:48.399Z,98874.72
2018-06-01T09:59:18.509Z,98869.72
2018-06-01T10:01:48.131Z,98876.45
2018-06-01T10:04:17.545Z,98878.42
2018-06-01T10:06:49.360Z,98876.36
2018-06-01T10:09:23.067Z,98873.89
2018-06-01T10:11:53.207Z,98877.01
2018-06-01T10:14:22.777Z,98877.07
2018-06-01T10:16:52.213Z,98873.65
2018-06-01T10:19:22.092Z,98877.16
2018-06-01T10:21:51.976Z,98883.73
2018-06-01T10:24:21.509Z,98880.31
2018-06-01T10:26:51.903Z,98878.86
2018-06-01T10:29:21.610Z,98881.56
2018-06-01T10:31:51.120Z,98867.91
2018-06-01T10:34:21.931Z,98876.00
2018-06-01T10:36:51.566Z,98874.45
2018-06-01T10:39:20.996Z,98866.84
2018-06-01T10:41:50.910Z,98878.73
2018-06-01T10:44:20.479Z,98878.00
2018-06-01T10:46:49.985Z,98883.22
2018-06-01T10:49:20.304Z,98871.16
2018-06-01T10:51:50.022Z,98872.90
2018-06-01T10:54:20.132Z,98877.14
2018-06-01T10:56:49.581Z,98866.66
2018-06-01T10:59:19.122Z,98883.31
2018-06-01T11:01:49.155Z,98879.11
2018-06-01T11:04:18.638Z,98880.45
2018-06-01T11:06:48.245Z,98882.98
2018-06-01T11:09:17.756Z,98882.25
2018-06-01T11:11:47.210Z,98877.82
2018-06-01T11:14:17.149Z,98885.02
2018-06-01T11:16:46.904Z,98891.55
2018-06-01T11:19:16.482Z,98894.88
2018-06-01T11:21:47.600Z,98884.42
2018-06-01T11:24:17.329Z,98885.60
2018-06-01T11:26:54.233Z,98887.57
2018-06-01T11:29:23.718Z,98889.31
2018-06-01T11:31:53.808Z,98893.19
2018-06-01T11:34:26.110Z,98887.25
2018-06-01T11:36:56.108Z,98892.46
2018-06-01T11:39:25.641Z,98899.20
2018-06-01T11:41:55.557Z,98890.72
2018-06-01T11:44:25.133Z,98903.64
2018-06-01T11:46:55.512Z,98894.98
2018-06-01T11:49:25.759Z,98896.93
2018-06-01T11:51:55.337Z,98867.95
2018-06-01T11:54:24.811Z,98903.24
2018-06-01T11:56:55.020Z,98905.38
2018-06-01T11:59:24.723Z,98895.78
2018-06-01T12:01:54.175Z,98904.45
2018-06-01T12:04:23.692Z,98906.98
2018-06-01T12:06:53.304Z,98892.78
2018-06-01T12:09:22.943Z,98889.36
2018-06-01T12:11:53.668Z,98889.58
2018-06-01T12:14:23.204Z,98888.83
2018-06-01T12:16:52.561Z,98894.78
2018-06-01T12:19:22.132Z,98899.47
2018-06-01T12:21:51.705Z,98892.00
2018-06-01T12:24:21.161Z,98901.44
2018-06-01T12:26:52.593Z,98895.17
2018-06-01T12:29:40.940Z,98904.36
2018-06-01T12:32:11.644Z,98904.53
2018-06-01T12:35:44.274Z,98906.50
2018-06-01T12:38:21.281Z,98908.91
2018-06-01T12:40:52.656Z,98908.91
2018-06-01T12:43:22.535Z,98909.36
2018-06-01T12:45:51.944Z,98927.51
2018-06-01T12:48:24.003Z,98916.10
2018-06-01T12:50:53.689Z,98927.28
2018-06-01T12:53:23.666Z,98916.73
2018-06-01T12:55:54.010Z,98927.05
2018-06-01T12:58:23.620Z,98925.31
2018-06-01T13:00:53.683Z,98927.61
2018-06-01T13:03:23.641Z,98924.36
2018-06-01T13:05:53.377Z,98924.36
2018-06-01T13:08:25.094Z,98931.66
2018-06-01T13:10:55.449Z,98927.84
2018-06-01T13:13:25.727Z,98917.22
2018-06-01T13:15:55.691Z,98918.57
2018-06-01T13:18:25.973Z,98918.73
2018-06-01T13:20:55.496Z,98916.83
2018-06-01T13:23:24.867Z,98912.78
2018-06-01T13:25:54.724Z,98919.92
2018-06-01T13:28:25.518Z,98920.48
2018-06-01T13:30:55.595Z,98892.86
2018-06-01T13:33:33.834Z,98905.48
2018-06-01T13:36:12.812Z,98902.63
2018-06-01T13:38:46.476Z,98898.74
2018-06-01T13:41:16.374Z,98897.00
2018-06-01T13:43:48.041Z,98890.53
2018-06-01T13:46:18.087Z,98899.92
2018-06-01T13:48:47.838Z,98897.79
2018-06-01T13:51:18.711Z,98897.63
2018-06-01T13:53:48.603Z,98891.28
2018-06-01T13:56:18.273Z,98891.50
2018-06-01T13:58:47.953Z,98894.20
2018-06-01T14:01:17.882Z,98891.11
2018-06-01T14:03:47.319Z,98889.20
2018-06-01T14:06:17.209Z,98890.94
2018-06-01T14:08:47.077Z,98884.88
2018-06-01T14:11:17.083Z,98894.42
2018-06-01T14:13:46.497Z,98891.14
2018-06-01T14:16:16.386Z,98877.45
2018-06-01T14:18:45.814Z,98878.45
2018-06-01T14:21:15.445Z,98883.11
2018-06-01T14:23:45.430Z,98877.33
2018-06-01T14:26:14.841Z,98883.11
2018-06-01T14:28:44.348Z,98878.67
2018-06-01T14:31:14.725Z,98861.49
2018-06-01T14:33:44.306Z,98876.20
2018-06-01T14:36:15.048Z,98876.26
2018-06-01T14:38:44.460Z,98864.48
2018-06-01T14:41:13.880Z,98871.82
2018-06-01T14:43:43.945Z,98870.30
2018-06-01T14:46:13.593Z,98862.05
2018-06-01T14:48:43.321Z,98859.86
2018-06-01T14:51:13.584Z,98862.05
2018-06-01T14:53:43.538Z,98861.66
2018-06-01T14:56:12.955Z,98848.37
2018-06-01T14:58:42.658Z,98851.45
2018-06-01T15:01:12.229Z,98852.24
2018-06-01T15:03:41.669Z,98851.29
2018-06-01T15:06:11.637Z,98843.59
2018-06-01T15:08:41.083Z,98851.52
2018-06-01T15:11:10.821Z,98828.30
2018-06-01T15:13:40.817Z,98832.19
2018-06-01T15:16:10.218Z,98857.92
2018-06-01T15:18:39.806Z,98859.05
2018-06-01T15:21:09.695Z,98864.27
2018-06-01T15:23:39.339Z,98869.66
2018-06-01T15:26:10.040Z,98864.27
2018-06-01T15:28:40.528Z,98868.88
2018-06-01T15:31:10.322Z,98871.02
2018-06-01T15:33:39.777Z,98871.23
2018-06-01T15:36:10.524Z,98872.59
2018-06-01T15:38:40.253Z,98855.61
2018-06-01T15:41:10.065Z,98887.42
2018-06-01T15:43:44.967Z,98869.62
2018-06-01T15:46:15.716Z,98887.58
2018-06-01T15:48:48.089Z,98897.02
2018-06-01T15:51:18.768Z,98894.33
2018-06-01T15:53:49.711Z,98893.94
2018-06-01T15:56:19.792Z,98896.63
2018-06-01T15:58:49.702Z,98899.33
2018-06-01T16:01:19.312Z,98890.30
2018-06-01T16:03:50.107Z,98883.56
2018-06-01T16:06:19.504Z,98907.48
2018-06-01T16:08:49.158Z,98908.83
2018-06-01T16:11:19.508Z,98910.17
2018-06-01T16:13:52.211Z,98909.58
2018-06-01T16:16:21.649Z,98905.93
2018-06-01T16:18:51.828Z,98905.93
2018-06-01T16:21:21.220Z,98896.31
2018-06-01T16:23:51.105Z,98907.67
2018-06-01T16:26:21.188Z,98906.72
2018-06-01T16:28:50.686Z,98914.08
2018-06-01T16:31:20.689Z,98913.69
2018-06-01T16:33:50.695Z,98910.42
2018-06-01T16:36:20.228Z,98902.50
2018-06-01T16:38:50.663Z,98901.16
2018-06-01T16:41:21.742Z,98881.42
2018-06-01T16:43:51.192Z,98897.34
2018-06-01T16:46:20.841Z,98899.64
2018-06-01T16:48:50.361Z,98902.11
2018-06-01T16:51:20.516Z,98899.64
2018-06-01T16:53:51.762Z,98905.26
2018-06-01T16:56:21.161Z,98897.81
2018-06-01T16:59:04.482Z,98909.47
2018-06-01T17:01:34.459Z,98910.03
2018-06-01T17:04:05.409Z,98896.03
2018-06-01T17:06:35.041Z,98912.34
2018-06-01T17:09:05.004Z,98897.13
2018-06-01T17:11:34.881Z,98910.03
2018-06-01T17:14:04.631Z,98904.25
2018-06-01T17:16:34.099Z,98902.50
2018-06-01T17:19:12.253Z,98855.23
2018-06-01T17:21:44.847Z,98904.02
2018-06-01T17:27:42.506Z,98906.49
2018-06-01T17:30:19.201Z,98899.38
2018-06-01T17:33:04.505Z,98898.23
2018-06-01T17:35:38.595Z,98894.97
2018-06-01T17:38:08.818Z,98885.14
2018-06-01T17:40:38.389Z,98890.93
2018-06-01T17:43:09.677Z,98883.06
2018-06-01T17:45:39.694Z,98899.64
2018-06-01T17:48:10.035Z,98883.29
2018-06-01T17:50:40.061Z,98885.03
2018-06-01T17:53:09.876Z,98884.08
2018-06-01T17:55:39.370Z,98888.13
2018-06-01T17:58:09.531Z,98888.52
2018-06-01T18:00:39.193Z,98910.09
2018-06-01T18:03:08.705Z,98881.77
2018-06-01T18:05:39.023Z,98879.64
2018-06-01T18:08:12.951Z,98883.13
2018-06-01T18:10:42.444Z,98861.52
2018-06-01T18:13:12.488Z,98875.19
2018-06-01T18:15:42.313Z,98884.80
2018-06-01T18:18:13.379Z,98892.34
2018-06-01T18:20:43.449Z,98889.08
2018-06-01T18:23:12.957Z,98890.03
2018-06-01T18:25:42.395Z,98886.77
2018-06-01T18:28:12.893Z,98889.70
2018-06-01T18:30:42.552Z,98901.67
2018-06-01T18:33:12.045Z,98891.83
2018-06-01T18:35:41.869Z,98899.36
2018-06-01T18:38:11.689Z,98910.16
2018-06-01T18:40:41.112Z,98904.36
2018-06-01T18:43:11.132Z,98902.39
2018-06-01T18:45:40.659Z,98908.58
2018-06-01T18:48:13.179Z,98895.11
2018-06-01T18:50:42.726Z,98909.95
2018-06-01T18:53:12.630Z,98909.16
2018-06-01T18:55:42.137Z,98911.27
2018-06-01T18:58:11.589Z,98914.92
2018-06-01T19:00:41.254Z,98924.92
2018-06-01T19:03:11.186Z,98922.80
2018-06-01T19:05:40.892Z,98923.52
2018-06-01T19:08:11.189Z,98935.88
2018-06-01T19:10:41.927Z,98933.35
2018-06-01T19:13:12.609Z,98920.22
2018-06-01T19:15:49.148Z,98930.59
2018-06-01T19:18:19.815Z,98930.56
2018-06-01T19:20:50.345Z,98933.03
2018-06-01T19:23:28.569Z,98940.17
2018-06-01T19:25:58.097Z,98937.25
2018-06-01T19:28:27.985Z,98946.85
2018-06-01T19:30:57.523Z,98942.58
2018-06-01T19:33:27.600Z,98938.51
2018-06-01T19:35:57.439Z,98943.11
2018-06-01T19:38:28.480Z,98946.14
2018-06-01T19:40:58.344Z,98944.01
2018-06-01T19:43:27.805Z,98953.45
2018-06-01T19:45:57.657Z,98951.47
2018-06-01T19:48:29.626Z,98949.73
2018-06-01T19:51:00.433Z,98953.55
2018-06-01T19:53:30.371Z,98948.72
2018-06-01T19:56:00.473Z,98954.31
2018-06-01T19:58:30.220Z,98963.19
2018-06-01T20:00:59.984Z,98968.58
2018-06-01T20:03:29.998Z,98973.21
2018-06-01T20:05:59.950Z,98976.70
2018-06-01T20:08:29.749Z,98965.42
2018-06-01T20:10:59.856Z,98976.92
2018-06-01T20:13:30.017Z,98969.00
2018-06-01T20:15:59.612Z,98971.20
2018-06-01T20:18:49.325Z,98971.20
2018-06-01T20:21:26.024Z,98955.91
2018-06-01T20:23:56.284Z,98967.26
2018-06-01T20:26:27.393Z,98969.33
2018-06-01T20:28:57.280Z,98965.91
2018-06-01T20:31:27.393Z,98973.27
2018-06-01T20:33:58.182Z,98978.27
2018-06-01T20:36:28.186Z,98977.71
2018-06-01T20:39:04.242Z,98975.58
2018-06-01T20:41:36.873Z,98971.14
2018-06-01T20:44:06.697Z,98970.58
2018-06-01T20:46:36.835Z,98976.76
2018-06-01T20:49:06.626Z,98978.50
2018-06-01T20:51:36.288Z,98977.15
2018-06-01T20:54:05.978Z,98975.41
2018-06-01T20:56:35.584Z,98985.24
2018-06-01T20:59:06.516Z,98988.89
2018-06-01T21:01:36.519Z,98991.42
2018-06-01T21:04:06.770Z,98987.81
2018-06-01T21:06:36.266Z,98998.16
2018-06-01T21:09:06.464Z,98999.68
2018-06-01T21:11:36.056Z,98990.15
2018-06-01T21:14:05.997Z,98987.22
